首页
METAR-TAF:

METAR-TAF

机场 :

La Crosse, 威斯康辛州, 美国

纬度: 43-52-46N, 经度: 091-15-24W, 海拔: 199米

当前天气观测

该预报发布于16分钟前的17:53 UTC
风速12节,风向西北
温度 27°C
湿度 45%
气压 1022 hPa
能見度: 16.1公里
天空无云

METAR: KLSE 231753Z 31012KT 10SM CLR 27/14 A3017 RMK AO2 SLP208 T02720144 10272 20183 58008

时间: 13:09 (18:09 UTC)

预报

该预报发布于49分钟前的17:20 UTC
预报有效从23日的 18点(UTC)到 24日的 18点(UTC)
风速9节,风向西北
能見度: 10公里
散云层高于5000英尺
从 24日的 0000点(UTC)
风速4节,风向多变
能見度: 10公里
散云层高于25000英尺

TAF: KLSE 231720Z 2318/2418 32009KT P6SM SCT050 FM240000 VRB04KT P6SM SCT250

超过4000个机场的气象观测和天气预报(METAR&TAF报告)。

可查询的气象台以黄色和红色小点在地图上表示。

将鼠标移到小点上方,可查看气象台名称。

然后点击查看天气观测和预报。

如需切换地图:点击带黑十字的绿色按钮放大地图;点击带横线的绿色按钮缩小地图;或者点击绿色箭头查看邻近地区的地图。


METAR-TAF: